createdAt,value
2023-03-02T00:01:56.630Z,6.18
2023-03-02T00:04:28.707Z,6.16
2023-03-02T00:07:00.742Z,6.13
2023-03-02T00:09:29.880Z,6.11
2023-03-02T00:11:58.427Z,6.08
2023-03-02T00:14:26.965Z,6.05
2023-03-02T00:16:56.554Z,6.06
2023-03-02T00:19:24.860Z,6.05
2023-03-02T00:21:53.087Z,6.03
2023-03-02T00:24:21.358Z,6.01
2023-03-02T00:26:49.602Z,5.99
2023-03-02T00:29:17.867Z,5.97
2023-03-02T00:31:46.144Z,5.96
2023-03-02T00:34:16.883Z,5.92
2023-03-02T00:36:45.131Z,5.92
2023-03-02T00:39:13.396Z,5.90
2023-03-02T00:41:41.643Z,5.88
2023-03-02T00:44:09.840Z,5.87
2023-03-02T00:46:38.123Z,5.84
2023-03-02T00:49:06.371Z,5.82
2023-03-02T00:51:36.319Z,5.81
2023-03-02T00:54:04.839Z,5.79
2023-03-02T00:56:33.426Z,5.78
2023-03-02T00:59:06.688Z,5.75
2023-03-02T01:01:34.998Z,5.73
2023-03-02T01:04:03.230Z,5.71
2023-03-02T01:06:31.917Z,5.69
2023-03-02T01:09:01.695Z,5.67
2023-03-02T01:11:29.944Z,5.66
2023-03-02T01:13:58.354Z,5.63
2023-03-02T01:16:26.685Z,5.64
2023-03-02T01:18:54.986Z,5.63
2023-03-02T01:21:23.279Z,5.62
2023-03-02T01:23:51.786Z,5.61
2023-03-02T01:26:21.418Z,5.59
2023-03-02T01:28:51.018Z,5.58
2023-03-02T01:31:19.270Z,5.58
2023-03-02T01:33:47.735Z,5.57
2023-03-02T01:36:17.012Z,5.56
2023-03-02T01:38:46.812Z,5.56
2023-03-02T01:41:15.191Z,5.56
2023-03-02T01:43:44.856Z,5.56
2023-03-02T01:46:17.822Z,5.54
2023-03-02T01:48:48.753Z,5.56
2023-03-02T01:51:22.330Z,5.55
2023-03-02T01:53:55.380Z,5.55
2023-03-02T01:56:28.212Z,5.54
2023-03-02T01:59:02.571Z,5.51
2023-03-02T02:01:33.946Z,5.53
2023-03-02T02:04:02.924Z,5.53
2023-03-02T02:06:36.571Z,5.52
2023-03-02T02:09:08.312Z,5.52
2023-03-02T02:11:36.718Z,5.50
2023-03-02T02:14:07.064Z,5.49
2023-03-02T02:16:36.792Z,5.49
2023-03-02T02:19:13.966Z,5.47
2023-03-02T02:21:42.369Z,5.46
2023-03-02T02:24:15.225Z,5.42
2023-03-02T02:26:49.163Z,5.45
2023-03-02T02:29:22.833Z,5.44
2023-03-02T02:31:56.415Z,5.43
2023-03-02T02:34:31.968Z,5.41
2023-03-02T02:37:08.115Z,5.40
2023-03-02T02:39:40.507Z,5.39
2023-03-02T02:42:16.260Z,5.37
2023-03-02T02:44:44.697Z,5.38
2023-03-02T02:47:19.136Z,5.38
2023-03-02T02:49:50.115Z,5.37
2023-03-02T02:52:22.374Z,5.37
2023-03-02T02:54:54.092Z,5.36
2023-03-02T02:57:27.439Z,5.33
2023-03-02T02:59:59.762Z,5.33
2023-03-02T03:02:30.885Z,5.31
2023-03-02T03:05:03.868Z,5.30
2023-03-02T03:07:33.658Z,5.29
2023-03-02T03:10:06.671Z,5.26
2023-03-02T03:12:36.668Z,5.25
2023-03-02T03:15:06.975Z,5.24
2023-03-02T03:17:35.252Z,5.22
2023-03-02T03:20:07.589Z,5.20
2023-03-02T03:22:36.672Z,5.20
2023-03-02T03:25:06.004Z,5.20
2023-03-02T03:27:35.597Z,5.19
2023-03-02T03:30:04.771Z,5.18
2023-03-02T03:32:35.493Z,5.17
2023-03-02T03:35:08.478Z,5.17
2023-03-02T03:37:37.485Z,5.15
2023-03-02T03:40:09.306Z,5.15
2023-03-02T03:42:39.829Z,5.13
2023-03-02T03:45:09.736Z,5.12
2023-03-02T03:47:38.583Z,5.11
2023-03-02T03:50:08.479Z,5.11
2023-03-02T03:52:36.697Z,5.11
2023-03-02T03:55:06.357Z,5.10
2023-03-02T03:57:34.602Z,5.10
2023-03-02T04:00:08.027Z,5.10
2023-03-02T04:02:36.327Z,5.11
2023-03-02T04:05:06.491Z,5.10
2023-03-02T04:07:34.839Z,5.08
2023-03-02T04:10:04.415Z,5.07
2023-03-02T04:12:32.927Z,5.06
2023-03-02T04:15:02.838Z,5.05
2023-03-02T04:17:31.256Z,5.05
2023-03-02T04:19:59.801Z,5.03
2023-03-02T04:22:28.686Z,5.02
2023-03-02T04:24:56.976Z,5.02
2023-03-02T04:27:25.251Z,5.00
2023-03-02T04:29:53.775Z,5.00
2023-03-02T04:32:23.651Z,4.97
2023-03-02T04:34:51.951Z,4.97
2023-03-02T04:37:20.341Z,4.96
2023-03-02T04:39:51.534Z,4.95
2023-03-02T04:42:20.313Z,4.95
2023-03-02T04:44:48.712Z,4.95
2023-03-02T04:47:17.120Z,4.92
2023-03-02T04:49:46.711Z,4.92
2023-03-02T04:52:14.902Z,4.92
2023-03-02T04:54:43.116Z,4.91
2023-03-02T04:57:11.367Z,4.91
2023-03-02T04:59:39.649Z,4.92
2023-03-02T05:02:08.315Z,4.91
2023-03-02T05:04:36.573Z,4.93
2023-03-02T05:07:06.300Z,4.93
2023-03-02T05:09:34.527Z,4.94
2023-03-02T05:12:03.342Z,4.94
2023-03-02T05:14:32.064Z,4.94
2023-03-02T05:17:00.536Z,4.94
2023-03-02T05:19:28.924Z,4.93
2023-03-02T05:21:57.526Z,4.94
2023-03-02T05:24:27.727Z,4.93
2023-03-02T05:26:56.061Z,4.90
2023-03-02T05:29:24.404Z,4.93
2023-03-02T05:31:52.814Z,4.94
2023-03-02T05:34:21.241Z,4.94
2023-03-02T05:36:49.493Z,4.94
2023-03-02T05:39:17.811Z,4.93
2023-03-02T05:41:47.388Z,4.93
2023-03-02T05:44:16.201Z,4.94
2023-03-02T05:46:44.487Z,4.94
2023-03-02T05:49:12.749Z,4.93
2023-03-02T05:51:40.959Z,4.92
2023-03-02T05:54:09.200Z,4.91
2023-03-02T05:56:37.469Z,4.90
2023-03-02T05:59:07.046Z,4.90
2023-03-02T06:01:36.856Z,4.91
2023-03-02T06:04:05.271Z,4.88
2023-03-02T06:06:34.298Z,4.90
2023-03-02T06:09:02.724Z,4.91
2023-03-02T06:11:31.379Z,4.92
2023-03-02T06:13:59.591Z,4.96
2023-03-02T06:16:29.256Z,4.95
2023-03-02T06:18:57.631Z,4.94
2023-03-02T06:21:25.989Z,4.97
2023-03-02T06:23:54.253Z,4.97
2023-03-02T06:26:22.736Z,4.96
2023-03-02T06:28:53.136Z,4.98
2023-03-02T06:31:22.462Z,5.00
2023-03-02T06:33:52.230Z,5.01
2023-03-02T06:36:20.560Z,5.02
2023-03-02T06:38:48.892Z,5.04
2023-03-02T06:41:17.847Z,5.05
2023-03-02T06:43:46.241Z,5.07
2023-03-02T06:46:14.558Z,5.09
2023-03-02T06:48:42.899Z,5.11
2023-03-02T06:51:13.274Z,5.13
2023-03-02T06:53:41.501Z,5.14
2023-03-02T06:56:09.856Z,5.19
2023-03-02T06:58:38.529Z,5.21
2023-03-02T07:01:08.842Z,5.24
2023-03-02T07:03:37.263Z,5.26
2023-03-02T07:06:05.977Z,5.30
2023-03-02T07:08:35.976Z,5.32
2023-03-02T07:11:07.555Z,5.38
2023-03-02T07:13:37.967Z,5.41
2023-03-02T07:16:09.612Z,5.45
2023-03-02T07:18:38.141Z,5.52
2023-03-02T07:21:07.348Z,5.60
2023-03-02T07:23:37.336Z,5.69
2023-03-02T07:26:08.599Z,5.80
2023-03-02T07:28:39.524Z,5.92
2023-03-02T07:31:08.509Z,6.04
2023-03-02T07:33:37.221Z,6.19
2023-03-02T07:36:07.111Z,6.36
2023-03-02T07:38:38.970Z,6.54
2023-03-02T07:41:11.114Z,6.74
2023-03-02T07:43:39.801Z,6.95
2023-03-02T07:46:08.562Z,7.17
2023-03-02T07:48:37.017Z,7.38
2023-03-02T07:51:07.637Z,7.63
2023-03-02T07:53:38.296Z,7.87
2023-03-02T07:56:11.423Z,8.08
2023-03-02T07:58:39.975Z,8.32
2023-03-02T08:01:08.932Z,8.54
2023-03-02T08:03:37.308Z,8.79
2023-03-02T08:06:11.015Z,9.05
2023-03-02T08:08:40.675Z,9.29
2023-03-02T08:11:11.220Z,9.53
2023-03-02T08:13:39.648Z,9.74
2023-03-02T08:16:10.966Z,9.95
2023-03-02T08:18:40.449Z,10.18
2023-03-02T08:21:14.591Z,10.41
2023-03-02T08:23:44.472Z,10.64
2023-03-02T08:26:15.295Z,10.83
2023-03-02T08:28:45.446Z,11.05
2023-03-02T08:31:14.290Z,11.27
2023-03-02T08:33:42.612Z,11.40
2023-03-02T08:36:15.016Z,11.61
2023-03-02T08:38:45.479Z,11.78
2023-03-02T08:41:15.826Z,11.92
2023-03-02T08:43:44.378Z,12.01
2023-03-02T08:46:14.653Z,12.15
2023-03-02T08:48:43.390Z,12.21
2023-03-02T08:51:15.392Z,12.24
2023-03-02T08:53:47.697Z,12.37
2023-03-02T08:56:18.516Z,12.47
2023-03-02T08:58:48.414Z,12.47
2023-03-02T09:01:18.760Z,12.54
2023-03-02T09:03:47.331Z,12.63
2023-03-02T09:06:16.060Z,12.67
2023-03-02T09:08:46.384Z,12.70
2023-03-02T09:11:15.156Z,12.85
2023-03-02T09:13:43.739Z,12.92
2023-03-02T09:16:13.033Z,12.98
2023-03-02T09:18:42.077Z,13.03
2023-03-02T09:21:11.388Z,13.14
2023-03-02T09:23:39.682Z,13.24
2023-03-02T09:26:09.833Z,13.33
2023-03-02T09:28:38.990Z,13.49
2023-03-02T09:31:09.545Z,13.65
2023-03-02T09:33:38.044Z,13.80
2023-03-02T09:36:11.725Z,13.77
2023-03-02T09:38:40.014Z,13.92
2023-03-02T09:42:06.102Z,14.01
2023-03-02T09:44:58.344Z,14.14
2023-03-02T09:47:35.999Z,14.27
2023-03-02T09:50:23.168Z,14.41
2023-03-02T09:53:08.036Z,14.53
2023-03-02T09:55:38.544Z,14.64
2023-03-02T09:58:16.208Z,14.70
2023-03-02T10:00:46.536Z,14.82
2023-03-02T10:03:20.337Z,14.94
2023-03-02T10:05:51.218Z,15.03
2023-03-02T10:08:23.891Z,15.14
2023-03-02T10:11:01.287Z,15.19
2023-03-02T10:13:36.185Z,15.25
2023-03-02T10:16:20.661Z,15.34
2023-03-02T10:18:55.157Z,15.39
2023-03-02T10:21:29.445Z,15.44
2023-03-02T10:24:05.648Z,15.49
2023-03-02T10:26:41.870Z,15.63
2023-03-02T10:29:51.261Z,15.71
2023-03-02T10:32:23.728Z,15.86
2023-03-02T10:34:55.229Z,15.97
2023-03-02T10:37:27.803Z,16.10
2023-03-02T10:39:56.867Z,16.25
2023-03-02T10:42:32.478Z,16.27
2023-03-02T10:45:12.540Z,16.42
2023-03-02T10:47:40.922Z,16.49
2023-03-02T10:50:23.397Z,16.53
2023-03-02T10:53:00.222Z,16.42
2023-03-02T10:55:29.319Z,16.28
2023-03-02T10:58:05.617Z,16.11
2023-03-02T11:00:36.838Z,16.05
2023-03-02T11:03:18.868Z,15.95
2023-03-02T11:05:47.785Z,15.93
2023-03-02T11:08:19.896Z,16.01
2023-03-02T11:10:56.996Z,16.11
2023-03-02T11:13:31.342Z,16.22
2023-03-02T11:16:03.718Z,16.37
2023-03-02T11:18:38.557Z,16.48
2023-03-02T11:21:12.979Z,16.65
2023-03-02T11:23:57.993Z,16.80
2023-03-02T11:26:30.055Z,16.92
2023-03-02T11:29:02.295Z,16.97
2023-03-02T11:31:45.323Z,17.10
2023-03-02T11:34:42.871Z,17.15
2023-03-02T11:37:20.040Z,17.26
2023-03-02T11:40:10.862Z,17.39
2023-03-02T11:42:42.595Z,17.51
2023-03-02T11:45:21.898Z,17.65
2023-03-02T11:48:02.496Z,17.69
2023-03-02T11:50:32.421Z,17.84
2023-03-02T11:53:04.801Z,17.87
2023-03-02T11:55:37.592Z,17.93
2023-03-02T11:58:07.129Z,17.94
2023-03-02T12:00:38.010Z,17.98
2023-03-02T12:03:21.672Z,18.06
2023-03-02T12:06:05.247Z,18.10
2023-03-02T12:08:40.332Z,18.20
2023-03-02T12:11:30.995Z,18.28
2023-03-02T12:14:04.018Z,18.26
2023-03-02T12:16:40.977Z,18.31
2023-03-02T12:19:29.108Z,18.29
2023-03-02T12:22:00.485Z,18.33
2023-03-02T12:24:31.923Z,18.31
2023-03-02T12:27:06.677Z,18.37
2023-03-02T12:29:45.779Z,18.39
2023-03-02T12:32:25.708Z,18.35
2023-03-02T12:35:00.651Z,18.33
2023-03-02T12:37:33.624Z,18.36
2023-03-02T12:40:33.596Z,18.39
2023-03-02T12:43:33.616Z,18.42
2023-03-02T12:46:37.401Z,18.39
2023-03-02T12:49:28.680Z,18.45
2023-03-02T12:51:59.143Z,18.47
2023-03-02T12:54:30.367Z,18.41
2023-03-02T12:57:08.961Z,18.43
2023-03-02T12:59:38.150Z,18.45
2023-03-02T13:02:18.182Z,18.45
2023-03-02T13:04:53.708Z,18.50
2023-03-02T13:07:26.977Z,18.51
2023-03-02T13:09:58.969Z,18.55
2023-03-02T13:12:29.323Z,18.55
2023-03-02T13:14:59.893Z,18.60
2023-03-02T13:17:31.359Z,18.68
2023-03-02T13:20:00.964Z,18.67
2023-03-02T13:22:31.256Z,18.58
2023-03-02T13:25:02.270Z,18.58
2023-03-02T13:27:33.867Z,18.61
2023-03-02T13:30:12.669Z,18.59
2023-03-02T13:32:43.284Z,18.67
2023-03-02T13:35:27.397Z,18.63
2023-03-02T13:38:04.497Z,18.68
2023-03-02T13:40:42.936Z,18.72
2023-03-02T13:43:39.515Z,18.75
2023-03-02T13:46:27.043Z,18.69
2023-03-02T13:49:09.189Z,18.70
2023-03-02T13:51:41.936Z,18.75
2023-03-02T13:54:22.479Z,18.76
2023-03-02T13:56:52.139Z,18.80
2023-03-02T13:59:22.750Z,18.85
2023-03-02T14:01:52.135Z,18.87
2023-03-02T14:04:23.426Z,18.80
2023-03-02T14:06:53.415Z,18.78
2023-03-02T14:09:23.338Z,18.76
2023-03-02T14:11:54.942Z,18.68
2023-03-02T14:14:26.544Z,18.69
2023-03-02T14:16:54.808Z,18.67
2023-03-02T14:19:23.063Z,18.68
2023-03-02T14:21:51.523Z,18.69
2023-03-02T14:24:19.873Z,18.68
2023-03-02T14:26:51.387Z,18.58
2023-03-02T14:29:26.151Z,18.47
2023-03-02T14:31:55.258Z,18.39
2023-03-02T14:34:23.964Z,18.33
2023-03-02T14:36:55.863Z,18.27
2023-03-02T14:39:31.954Z,18.16
2023-03-02T14:42:01.710Z,18.10
2023-03-02T14:44:30.206Z,18.02
2023-03-02T14:46:58.553Z,17.93
2023-03-02T14:49:26.928Z,17.84
2023-03-02T14:52:01.722Z,17.74
2023-03-02T14:54:37.788Z,17.65
2023-03-02T14:57:14.441Z,17.59
2023-03-02T14:59:42.756Z,17.58
2023-03-02T15:02:24.384Z,17.56
2023-03-02T15:04:56.541Z,17.52
2023-03-02T15:07:26.258Z,17.50
2023-03-02T15:09:55.914Z,17.45
2023-03-02T15:12:25.847Z,17.36
2023-03-02T15:14:54.463Z,17.29
2023-03-02T15:17:22.844Z,17.27
2023-03-02T15:19:51.163Z,17.20
2023-03-02T15:22:19.541Z,17.16
2023-03-02T15:24:47.938Z,17.14
2023-03-02T15:27:16.564Z,17.09
2023-03-02T15:29:48.120Z,17.05
2023-03-02T15:32:17.255Z,16.98
2023-03-02T15:34:45.970Z,16.91
2023-03-02T15:37:14.298Z,16.81
2023-03-02T15:39:44.510Z,16.74
2023-03-02T15:42:14.068Z,16.68
2023-03-02T15:44:42.490Z,16.64
2023-03-02T15:47:13.113Z,16.63
2023-03-02T15:49:41.955Z,16.59
2023-03-02T15:52:11.854Z,16.56
2023-03-02T15:54:40.297Z,16.49
2023-03-02T15:57:10.200Z,16.46
2023-03-02T15:59:38.596Z,16.43
2023-03-02T16:02:07.001Z,16.38
2023-03-02T16:04:36.789Z,16.33
2023-03-02T16:07:05.176Z,16.32
2023-03-02T16:09:34.337Z,16.29
2023-03-02T16:12:02.663Z,16.26
2023-03-02T16:14:31.056Z,16.19
2023-03-02T16:16:59.433Z,16.16
2023-03-02T16:19:27.807Z,16.07
2023-03-02T16:21:57.604Z,16.00
2023-03-02T16:24:26.438Z,15.98
2023-03-02T16:26:55.016Z,15.95
2023-03-02T16:29:24.205Z,15.92
2023-03-02T16:31:52.844Z,15.87
2023-03-02T16:34:21.356Z,15.86
2023-03-02T16:36:50.035Z,15.83
2023-03-02T16:39:19.725Z,15.79
2023-03-02T16:41:48.156Z,15.74
2023-03-02T16:44:17.081Z,15.67
2023-03-02T16:46:45.527Z,15.63
2023-03-02T16:49:15.063Z,15.58
2023-03-02T16:51:44.219Z,15.50
2023-03-02T16:54:16.348Z,15.39
2023-03-02T16:56:47.524Z,15.35
2023-03-02T16:59:16.061Z,15.26
2023-03-02T17:01:44.790Z,15.18
2023-03-02T17:04:13.187Z,15.09
2023-03-02T17:06:59.954Z,15.00
2023-03-02T17:09:29.096Z,14.90
2023-03-02T17:11:59.249Z,14.81
2023-03-02T17:14:27.932Z,14.74
2023-03-02T17:16:57.905Z,14.64
2023-03-02T17:19:29.493Z,14.57
2023-03-02T17:21:59.178Z,14.49
2023-03-02T17:24:28.084Z,14.41
2023-03-02T17:26:58.152Z,14.36
2023-03-02T17:29:26.550Z,14.28
2023-03-02T17:31:55.387Z,14.20
2023-03-02T17:34:24.157Z,14.12
2023-03-02T17:36:52.448Z,14.04
2023-03-02T17:39:20.928Z,13.95
2023-03-02T17:41:49.322Z,13.86
2023-03-02T17:44:19.062Z,13.76
2023-03-02T17:46:47.645Z,13.66
2023-03-02T17:49:15.991Z,13.57
2023-03-02T17:51:44.349Z,13.47
2023-03-02T17:54:12.749Z,13.40
2023-03-02T17:56:41.233Z,13.32
2023-03-02T17:59:09.766Z,13.24
2023-03-02T18:01:39.489Z,13.19
2023-03-02T18:04:08.097Z,13.10
2023-03-02T18:06:36.721Z,13.01
2023-03-02T18:09:05.326Z,12.95
2023-03-02T18:11:34.355Z,12.88
2023-03-02T18:14:02.753Z,12.83
2023-03-02T18:16:31.405Z,12.77
2023-03-02T18:19:01.112Z,12.71
2023-03-02T18:21:30.933Z,12.67
2023-03-02T18:23:59.697Z,12.63
2023-03-02T18:26:27.972Z,12.57
2023-03-02T18:28:56.282Z,12.50
2023-03-02T18:31:25.164Z,12.46
2023-03-02T18:33:54.467Z,12.38
2023-03-02T18:36:24.093Z,12.33
2023-03-02T18:38:53.017Z,12.27
2023-03-02T18:41:21.873Z,12.20
2023-03-02T18:43:50.888Z,12.13
2023-03-02T18:46:22.384Z,12.07
2023-03-02T18:48:51.358Z,12.00
2023-03-02T18:51:20.299Z,11.95
2023-03-02T18:53:51.205Z,11.87
2023-03-02T18:56:19.979Z,11.79
2023-03-02T18:58:49.574Z,11.70
2023-03-02T19:01:18.002Z,11.65
2023-03-02T19:03:46.857Z,11.58
2023-03-02T19:06:16.501Z,11.49
2023-03-02T19:08:45.106Z,11.43
2023-03-02T19:11:14.863Z,11.36
2023-03-02T19:13:43.196Z,11.31
2023-03-02T19:16:11.519Z,11.25
2023-03-02T19:18:40.191Z,11.20
2023-03-02T19:21:08.799Z,11.17
2023-03-02T19:23:37.291Z,11.11
2023-03-02T19:26:06.039Z,11.08
2023-03-02T19:28:37.192Z,11.04
2023-03-02T19:31:08.861Z,10.98
2023-03-02T19:33:37.489Z,10.93
2023-03-02T19:36:06.874Z,10.88
2023-03-02T19:38:37.844Z,10.82
2023-03-02T19:41:06.563Z,10.74
2023-03-02T19:43:36.204Z,10.66
2023-03-02T19:46:05.262Z,10.61
2023-03-02T19:48:35.599Z,10.54
2023-03-02T19:51:05.043Z,10.48
2023-03-02T19:53:33.899Z,10.41
2023-03-02T19:56:02.684Z,10.35
2023-03-02T19:58:33.179Z,10.31
2023-03-02T20:01:03.713Z,10.27
2023-03-02T20:03:32.270Z,10.21
2023-03-02T20:06:00.534Z,10.18
2023-03-02T20:08:29.032Z,10.15
2023-03-02T20:10:57.304Z,10.10
2023-03-02T20:13:27.232Z,10.07
2023-03-02T20:15:55.604Z,10.02
2023-03-02T20:18:25.250Z,9.96
2023-03-02T20:20:53.664Z,9.91
2023-03-02T20:23:21.950Z,9.85
2023-03-02T20:25:50.447Z,9.80
2023-03-02T20:28:23.657Z,9.75
2023-03-02T20:30:56.612Z,9.68
2023-03-02T20:33:32.813Z,9.63
2023-03-02T20:36:03.125Z,9.57
2023-03-02T20:38:36.634Z,9.50
2023-03-02T20:41:06.405Z,9.45
2023-03-02T20:43:35.809Z,9.38
2023-03-02T20:46:05.292Z,9.33
2023-03-02T20:48:35.249Z,9.28
2023-03-02T20:51:04.195Z,9.23
2023-03-02T20:53:32.498Z,9.19
2023-03-02T20:56:00.833Z,9.15
2023-03-02T20:58:29.291Z,9.10
2023-03-02T21:00:58.563Z,9.06
2023-03-02T21:03:27.112Z,9.00
2023-03-02T21:05:57.698Z,8.95
2023-03-02T21:08:26.813Z,8.91
2023-03-02T21:10:55.148Z,8.87
2023-03-02T21:13:23.534Z,8.84
2023-03-02T21:15:51.903Z,8.80
2023-03-02T21:18:20.239Z,8.77
2023-03-02T21:20:48.524Z,8.73
2023-03-02T21:23:18.272Z,8.70
2023-03-02T21:25:47.292Z,8.66
2023-03-02T21:28:15.568Z,8.61
2023-03-02T21:30:43.812Z,8.59
2023-03-02T21:33:12.082Z,8.53
2023-03-02T21:35:40.475Z,8.50
2023-03-02T21:38:09.433Z,8.47
2023-03-02T21:40:45.725Z,8.43
2023-03-02T21:43:16.169Z,8.41
2023-03-02T21:45:44.477Z,8.35
2023-03-02T21:48:14.860Z,8.32
2023-03-02T21:50:43.794Z,8.27
2023-03-02T21:53:12.186Z,8.25
2023-03-02T21:55:42.350Z,8.21
2023-03-02T21:58:11.573Z,8.18
2023-03-02T22:00:45.504Z,8.13
2023-03-02T22:03:14.383Z,8.09
2023-03-02T22:05:43.068Z,8.07
2023-03-02T22:08:14.992Z,8.01
2023-03-02T22:10:46.879Z,7.99
2023-03-02T22:13:23.692Z,7.95
2023-03-02T22:15:58.107Z,7.90
2023-03-02T22:18:28.561Z,7.86
2023-03-02T22:20:56.936Z,7.83
2023-03-02T22:23:27.915Z,7.79
2023-03-02T22:26:14.152Z,7.73
2023-03-02T22:28:42.482Z,7.70
2023-03-02T22:31:20.327Z,7.66
2023-03-02T22:33:49.369Z,7.64
2023-03-02T22:36:23.454Z,7.61
2023-03-02T22:38:52.516Z,7.57
2023-03-02T22:41:22.255Z,7.55
2023-03-02T22:43:52.935Z,7.52
2023-03-02T22:46:22.856Z,7.51
2023-03-02T22:48:53.564Z,7.49
2023-03-02T22:51:24.869Z,7.46
2023-03-02T22:53:56.015Z,7.42
2023-03-02T22:56:38.560Z,7.40
2023-03-02T22:59:15.615Z,7.36
2023-03-02T23:01:46.120Z,7.31
2023-03-02T23:04:22.186Z,7.27
2023-03-02T23:06:53.161Z,7.24
2023-03-02T23:09:25.089Z,7.21
2023-03-02T23:11:57.826Z,7.17
2023-03-02T23:14:28.745Z,7.14
2023-03-02T23:17:01.601Z,7.10
2023-03-02T23:19:32.295Z,7.06
2023-03-02T23:22:00.584Z,7.04
2023-03-02T23:24:28.882Z,7.00
2023-03-02T23:26:58.564Z,6.97
2023-03-02T23:29:26.861Z,6.95
2023-03-02T23:31:55.293Z,6.90
2023-03-02T23:34:23.631Z,6.97
2023-03-02T23:36:52.033Z,6.95
2023-03-02T23:39:20.330Z,6.91
2023-03-02T23:41:48.629Z,6.84
2023-03-02T23:44:19.285Z,6.80
2023-03-02T23:46:47.951Z,6.76
2023-03-02T23:49:16.856Z,6.71
2023-03-02T23:51:45.214Z,6.68
2023-03-02T23:54:14.281Z,6.65
2023-03-02T23:56:42.596Z,6.62
2023-03-02T23:59:10.899Z,6.59
